TimeMDT,TemperatureF,Dew PointF,Humidity,Sea Level PressureIn,VisibilityMPH,Wind Direction,Wind SpeedMPH,Gust SpeedMPH,PrecipitationIn,Events,Conditions,WindDirDegrees,DateUTC
12:15 AM,28.4,21.2,74,30.43,10.0,Calm,Calm,-,N/A,,Clear,0,2013-03-15 06:15:00
12:35 AM,28.4,21.2,74,30.42,10.0,Calm,Calm,-,N/A,,Clear,0,2013-03-15 06:35:00
12:55 AM,28.4,21.2,74,30.43,10.0,Calm,Calm,-,N/A,,Clear,0,2013-03-15 06:55:00
1:15 AM,28.4,19.4,69,30.42,10.0,Calm,Calm,-,N/A,,Clear,0,2013-03-15 07:15:00
1:35 AM,26.6,17.6,69,30.42,10.0,Calm,Calm,-,N/A,,Clear,0,2013-03-15 07:35:00
1:55 AM,26.6,19.4,74,30.42,10.0,ENE,4.6,-,N/A,,Clear,60,2013-03-15 07:55:00
2:15 AM,26.6,21.2,80,30.42,10.0,Calm,Calm,-,N/A,,Clear,0,2013-03-15 08:15:00
2:35 AM,26.6,19.4,74,30.42,10.0,Calm,Calm,-,N/A,,Clear,0,2013-03-15 08:35:00
2:55 AM,26.6,19.4,74,30.41,10.0,NE,4.6,-,N/A,,Clear,40,2013-03-15 08:55:00
3:15 AM,24.8,17.6,74,30.41,10.0,NNE,3.5,-,N/A,,Clear,30,2013-03-15 09:15:00
3:35 AM,26.6,19.4,74,30.40,10.0,Calm,Calm,-,N/A,,Clear,0,2013-03-15 09:35:00
3:55 AM,24.8,19.4,80,30.40,10.0,Calm,Calm,-,N/A,,Clear,0,2013-03-15 09:55:00
4:15 AM,24.8,17.6,74,30.39,10.0,NNE,3.5,-,N/A,,Clear,20,2013-03-15 10:15:00
4:35 AM,23.0,17.6,80,30.39,10.0,Calm,Calm,-,N/A,,Clear,0,2013-03-15 10:35:00
4:55 AM,23.0,17.6,80,30.39,10.0,Calm,Calm,-,N/A,,Clear,0,2013-03-15 10:55:00
5:15 AM,24.8,17.6,74,30.39,10.0,Calm,Calm,-,N/A,,Clear,0,2013-03-15 11:15:00
5:35 AM,23.0,17.6,80,30.39,10.0,NE,3.5,-,N/A,,Clear,50,2013-03-15 11:35:00
5:55 AM,23.0,17.6,80,30.39,10.0,Calm,Calm,-,N/A,,Clear,0,2013-03-15 11:55:00
6:15 AM,23.0,15.8,74,30.38,10.0,NE,4.6,-,N/A,,Clear,50,2013-03-15 12:15:00
6:35 AM,21.2,15.8,80,30.38,10.0,ENE,4.6,-,N/A,,Clear,60,2013-03-15 12:35:00
6:55 AM,21.2,15.8,80,30.38,10.0,Calm,Calm,-,N/A,,Clear,0,2013-03-15 12:55:00
7:15 AM,21.2,15.8,80,30.38,10.0,Calm,Calm,-,N/A,,Clear,0,2013-03-15 13:15:00
7:35 AM,21.2,15.8,80,30.38,10.0,Calm,Calm,-,N/A,,Clear,0,2013-03-15 13:35:00
7:55 AM,21.2,15.8,80,30.38,10.0,Calm,Calm,-,N/A,,Clear,0,2013-03-15 13:55:00
8:15 AM,21.2,15.8,80,30.37,10.0,Calm,Calm,-,N/A,,Clear,0,2013-03-15 14:15:00
8:35 AM,21.2,15.8,80,30.37,10.0,ENE,4.6,-,N/A,,Clear,70,2013-03-15 14:35:00
8:55 AM,24.8,17.6,74,30.37,10.0,Calm,Calm,-,N/A,,Clear,0,2013-03-15 14:55:00
9:15 AM,26.6,19.4,74,30.37,10.0,Calm,Calm,-,N/A,,Clear,0,2013-03-15 15:15:00
9:35 AM,28.4,21.2,74,30.37,10.0,Calm,Calm,-,N/A,,Clear,0,2013-03-15 15:35:00
9:55 AM,30.2,21.2,69,30.36,10.0,East,4.6,-,N/A,,Clear,80,2013-03-15 15:55:00
10:15 AM,32.0,23.0,69,30.36,10.0,ESE,3.5,-,N/A,,Clear,120,2013-03-15 16:15:00
10:35 AM,33.8,24.8,70,30.35,10.0,Calm,Calm,-,N/A,,Clear,0,2013-03-15 16:35:00
10:55 AM,35.6,21.2,56,30.34,10.0,Calm,Calm,-,N/A,,Clear,0,2013-03-15 16:55:00
11:15 AM,39.2,24.8,56,30.33,10.0,Calm,Calm,-,N/A,,Clear,0,2013-03-15 17:15:00
11:35 AM,41.0,24.8,53,30.33,10.0,Calm,Calm,-,N/A,,Clear,0,2013-03-15 17:35:00
11:55 AM,41.0,24.8,53,30.32,10.0,East,4.6,-,N/A,,Clear,90,2013-03-15 17:55:00
12:15 PM,42.8,24.8,49,30.31,10.0,East,4.6,-,N/A,,Clear,100,2013-03-15 18:15:00
12:35 PM,42.8,24.8,49,30.30,10.0,East,4.6,-,N/A,,Clear,90,2013-03-15 18:35:00
12:55 PM,44.6,24.8,46,30.29,10.0,East,4.6,-,N/A,,Clear,100,2013-03-15 18:55:00
1:15 PM,42.8,24.8,49,30.28,10.0,East,4.6,-,N/A,,Clear,100,2013-03-15 19:15:00
1:35 PM,44.6,24.8,46,30.27,10.0,ESE,3.5,-,N/A,,Clear,110,2013-03-15 19:35:00
1:55 PM,46.4,24.8,43,30.26,10.0,East,4.6,-,N/A,,Clear,80,2013-03-15 19:55:00
2:15 PM,46.4,24.8,43,30.24,10.0,East,4.6,-,N/A,,Clear,100,2013-03-15 20:15:00
2:35 PM,46.4,26.6,46,30.23,10.0,East,4.6,-,N/A,,Clear,100,2013-03-15 20:35:00
2:55 PM,46.4,26.6,46,30.21,10.0,East,5.8,-,N/A,,Clear,90,2013-03-15 20:55:00
3:15 PM,48.2,26.6,43,30.20,10.0,Calm,Calm,-,N/A,,Clear,0,2013-03-15 21:15:00
3:35 PM,48.2,26.6,43,30.19,10.0,Calm,Calm,-,N/A,,Clear,0,2013-03-15 21:35:00
3:55 PM,50.0,26.6,40,30.18,10.0,NNE,4.6,-,N/A,,Clear,30,2013-03-15 21:55:00
4:15 PM,50.0,26.6,40,30.18,10.0,North,6.9,-,N/A,,Clear,350,2013-03-15 22:15:00
4:35 PM,50.0,26.6,40,30.17,10.0,North,4.6,-,N/A,,Clear,10,2013-03-15 22:35:00
4:55 PM,51.8,28.4,41,30.16,10.0,ESE,3.5,-,N/A,,Clear,120,2013-03-15 22:55:00
5:15 PM,51.8,28.4,41,30.16,10.0,SE,3.5,-,N/A,,Clear,140,2013-03-15 23:15:00
5:35 PM,53.6,28.4,38,30.15,10.0,SSW,4.6,-,N/A,,Clear,200,2013-03-15 23:35:00
5:55 PM,57.2,28.4,33,30.14,10.0,WSW,4.6,-,N/A,,Clear,240,2013-03-15 23:55:00
6:15 PM,55.4,26.6,33,30.13,10.0,WSW,5.8,-,N/A,,Clear,250,2013-03-16 00:15:00
6:35 PM,55.4,24.8,31,30.13,10.0,SSW,4.6,-,N/A,,Clear,210,2013-03-16 00:35:00
6:55 PM,53.6,24.8,33,30.14,10.0,Calm,Calm,-,N/A,,Clear,0,2013-03-16 00:55:00
7:15 PM,51.8,23.0,33,30.14,10.0,Calm,Calm,-,N/A,,Clear,0,2013-03-16 01:15:00
7:35 PM,48.2,23.0,37,30.14,10.0,Calm,Calm,-,N/A,,Clear,0,2013-03-16 01:35:00
7:55 PM,46.4,24.8,43,30.14,10.0,Calm,Calm,-,N/A,,Clear,0,2013-03-16 01:55:00
8:15 PM,46.4,23.0,40,30.14,10.0,NW,3.5,-,N/A,,Clear,310,2013-03-16 02:15:00
8:35 PM,44.6,23.0,43,30.14,10.0,North,3.5,-,N/A,,Clear,10,2013-03-16 02:35:00
8:55 PM,44.6,21.2,39,30.14,10.0,Calm,Calm,-,N/A,,Clear,0,2013-03-16 02:55:00
9:15 PM,41.0,21.2,45,30.14,10.0,Calm,Calm,-,N/A,,Clear,0,2013-03-16 03:15:00
9:35 PM,41.0,23.0,49,30.15,10.0,Calm,Calm,-,N/A,,Clear,0,2013-03-16 03:35:00
9:55 PM,39.2,23.0,52,30.14,10.0,Calm,Calm,-,N/A,,Clear,0,2013-03-16 03:55:00
10:15 PM,37.4,23.0,56,30.14,10.0,Calm,Calm,-,N/A,,Clear,0,2013-03-16 04:15:00
10:35 PM,37.4,24.8,60,30.14,10.0,North,3.5,-,N/A,,Clear,10,2013-03-16 04:35:00
10:55 PM,35.6,21.2,56,30.14,10.0,NNW,4.6,-,N/A,,Clear,340,2013-03-16 04:55:00
11:55 PM,33.8,23.0,65,30.14,10.0,Calm,Calm,-,N/A,,Clear,0,2013-03-16 05:55:00